createdAt,value
2023-05-19T00:00:37.270Z,4.45
2023-05-19T00:03:04.439Z,3.88
2023-05-19T00:05:31.859Z,4.15
2023-05-19T00:07:59.712Z,5.47
2023-05-19T00:10:26.887Z,4.80
2023-05-19T00:12:55.397Z,5.10
2023-05-19T00:15:22.710Z,5.05
2023-05-19T00:17:49.485Z,5.20
2023-05-19T00:20:16.306Z,4.97
2023-05-19T00:22:42.990Z,5.07
2023-05-19T00:25:10.296Z,5.05
2023-05-19T00:27:37.006Z,5.60
2023-05-19T00:30:06.409Z,4.32
2023-05-19T00:32:33.185Z,4.57
2023-05-19T00:34:59.921Z,5.28
2023-05-19T00:37:26.976Z,5.35
2023-05-19T00:39:53.689Z,4.50
2023-05-19T00:42:21.127Z,5.38
2023-05-19T00:44:47.772Z,5.32
2023-05-19T00:47:15.985Z,5.38
2023-05-19T00:49:42.652Z,7.47
2023-05-19T00:52:09.344Z,5.55
2023-05-19T00:54:36.235Z,5.28
2023-05-19T00:57:03.185Z,4.63
2023-05-19T00:59:29.833Z,5.35
2023-05-19T01:01:56.540Z,5.72
2023-05-19T01:04:24.713Z,5.65
2023-05-19T01:06:51.504Z,5.72
2023-05-19T01:09:18.382Z,5.72
2023-05-19T01:11:45.083Z,5.13
2023-05-19T01:14:11.764Z,5.47
2023-05-19T01:16:40.940Z,5.05
2023-05-19T01:19:17.245Z,4.80
2023-05-19T01:22:06.578Z,5.10
2023-05-19T01:25:23.703Z,5.32
2023-05-19T01:28:09.018Z,4.75
2023-05-19T01:30:37.758Z,5.60
2023-05-19T01:33:06.976Z,5.13
2023-05-19T01:35:35.912Z,6.43
2023-05-19T01:38:04.596Z,5.57
2023-05-19T01:40:32.661Z,5.50
2023-05-19T01:43:01.366Z,6.25
2023-05-19T01:45:29.071Z,4.85
2023-05-19T01:47:58.725Z,5.20
2023-05-19T01:50:25.689Z,5.63
2023-05-19T01:52:52.560Z,5.32
2023-05-19T01:55:19.740Z,5.55
2023-05-19T01:57:51.632Z,5.55
2023-05-19T02:00:24.876Z,5.30
2023-05-19T02:03:00.126Z,4.97
2023-05-19T02:10:24.357Z,5.85
2023-05-19T02:12:53.646Z,5.95
2023-05-19T02:15:22.334Z,5.35
2023-05-19T02:17:50.258Z,6.13
2023-05-19T02:20:18.589Z,6.55
2023-05-19T02:22:45.628Z,6.18
2023-05-19T02:25:12.324Z,5.63
2023-05-19T02:27:39.100Z,6.47
2023-05-19T02:30:07.709Z,6.00
2023-05-19T02:32:35.030Z,6.03
2023-05-19T02:35:01.772Z,6.18
2023-05-19T02:37:29.827Z,5.72
2023-05-19T02:39:56.612Z,5.20
2023-05-19T02:42:23.284Z,5.78
2023-05-19T02:44:50.008Z,6.25
2023-05-19T02:47:16.810Z,6.82
2023-05-19T02:49:43.589Z,5.43
2023-05-19T02:52:10.249Z,5.80
2023-05-19T02:54:38.277Z,6.07
2023-05-19T02:57:05.385Z,7.07
2023-05-19T02:59:32.066Z,6.60
2023-05-19T03:02:00.443Z,5.90
2023-05-19T03:04:27.286Z,5.38
2023-05-19T03:06:53.976Z,6.38
2023-05-19T03:09:20.711Z,5.07
2023-05-19T03:11:48.830Z,6.20
2023-05-19T03:14:15.511Z,5.72
2023-05-19T03:16:42.544Z,8.07
2023-05-19T03:19:09.505Z,6.03
2023-05-19T03:21:36.263Z,6.13
2023-05-19T03:24:03.114Z,5.82
2023-05-19T03:26:29.898Z,5.55
2023-05-19T03:28:57.950Z,5.85
2023-05-19T03:31:24.636Z,5.72
2023-05-19T03:33:51.334Z,6.20
2023-05-19T03:36:18.057Z,6.72
2023-05-19T03:38:44.753Z,6.70
2023-05-19T03:41:11.529Z,5.80
2023-05-19T03:43:38.216Z,6.00
2023-05-19T03:46:06.353Z,5.43
2023-05-19T03:48:33.112Z,6.13
2023-05-19T03:50:59.844Z,5.35
2023-05-19T03:53:26.550Z,6.13
2023-05-19T03:55:53.461Z,6.10
2023-05-19T03:58:20.132Z,5.82
2023-05-19T04:00:46.872Z,5.93
2023-05-19T04:03:15.066Z,5.82
2023-05-19T04:05:41.913Z,5.55
2023-05-19T04:08:08.615Z,6.25
2023-05-19T04:10:35.364Z,6.10
2023-05-19T04:13:02.127Z,6.88
2023-05-19T04:15:29.114Z,6.63
2023-05-19T04:17:56.032Z,5.78
2023-05-19T04:20:24.260Z,6.18
2023-05-19T04:22:50.948Z,6.35
2023-05-19T04:25:17.609Z,5.97
2023-05-19T04:27:44.352Z,6.18
2023-05-19T04:30:11.761Z,6.28
2023-05-19T04:32:38.509Z,5.90
2023-05-19T04:35:05.838Z,6.97
2023-05-19T04:37:33.908Z,5.85
2023-05-19T04:40:00.605Z,5.72
2023-05-19T04:42:27.357Z,6.22
2023-05-19T04:44:54.044Z,6.15
2023-05-19T04:47:20.725Z,5.75
2023-05-19T04:49:47.568Z,5.55
2023-05-19T04:52:14.335Z,5.90
2023-05-19T04:54:42.409Z,6.45
2023-05-19T04:57:09.148Z,5.85
2023-05-19T04:59:36.180Z,6.40
2023-05-19T05:02:02.944Z,6.20
2023-05-19T05:04:29.639Z,5.75
2023-05-19T05:06:56.322Z,6.30
2023-05-19T05:09:23.024Z,5.43
2023-05-19T05:11:51.793Z,5.85
2023-05-19T05:14:18.988Z,5.97
2023-05-19T05:16:46.404Z,6.00
2023-05-19T05:19:13.782Z,5.45
2023-05-19T05:21:41.004Z,5.65
2023-05-19T05:24:09.040Z,6.60
2023-05-19T05:26:36.207Z,6.85
2023-05-19T05:29:04.456Z,6.22
2023-05-19T05:31:31.125Z,5.72
2023-05-19T05:33:57.982Z,6.32
2023-05-19T05:36:24.628Z,7.53
2023-05-19T05:38:51.507Z,6.20
2023-05-19T05:41:18.238Z,5.55
2023-05-19T05:43:44.923Z,6.15
2023-05-19T05:46:13.123Z,6.05
2023-05-19T05:48:40.384Z,5.60
2023-05-19T05:51:08.102Z,6.10
2023-05-19T05:53:37.420Z,5.50
2023-05-19T05:56:04.805Z,6.05
2023-05-19T05:58:31.576Z,5.70
2023-05-19T06:00:58.263Z,6.97
2023-05-19T06:03:26.445Z,6.68
2023-05-19T06:05:53.398Z,5.72
2023-05-19T06:08:20.211Z,5.68
2023-05-19T06:10:47.533Z,5.18
2023-05-19T06:13:14.390Z,4.68
2023-05-19T06:15:41.083Z,5.18
2023-05-19T06:18:07.912Z,5.80
2023-05-19T06:20:36.215Z,6.40
2023-05-19T06:23:03.202Z,5.30
2023-05-19T06:25:29.922Z,4.88
2023-05-19T06:27:56.701Z,5.30
2023-05-19T06:30:23.348Z,6.05
2023-05-19T06:32:50.100Z,5.80
2023-05-19T06:35:16.858Z,5.25
2023-05-19T06:37:44.916Z,5.07
2023-05-19T06:40:12.729Z,5.53
2023-05-19T06:42:39.487Z,5.35
2023-05-19T06:45:07.443Z,5.40
2023-05-19T06:47:34.175Z,4.90
2023-05-19T06:50:00.905Z,5.35
2023-05-19T06:52:27.688Z,5.28
2023-05-19T06:54:55.772Z,5.32
2023-05-19T06:57:22.501Z,6.25
2023-05-19T06:59:49.188Z,5.03
2023-05-19T07:02:15.911Z,5.88
2023-05-19T07:04:42.645Z,4.95
2023-05-19T07:07:09.382Z,4.70
2023-05-19T07:09:36.156Z,4.93
2023-05-19T07:12:04.574Z,4.63
2023-05-19T07:14:31.305Z,4.22
2023-05-19T07:16:58.118Z,4.93
2023-05-19T07:19:24.852Z,4.40
2023-05-19T07:21:51.594Z,4.43
2023-05-19T07:24:18.329Z,4.47
2023-05-19T07:26:45.122Z,4.13
2023-05-19T07:29:13.218Z,4.15
2023-05-19T07:31:39.997Z,3.97
2023-05-19T07:34:06.723Z,3.90
2023-05-19T07:36:33.439Z,4.43
2023-05-19T07:39:00.197Z,4.75
2023-05-19T07:41:27.040Z,4.07
2023-05-19T07:43:53.704Z,4.40
2023-05-19T07:46:21.919Z,4.45
2023-05-19T07:48:48.703Z,4.13
2023-05-19T07:51:15.463Z,4.30
2023-05-19T07:53:42.140Z,4.30
2023-05-19T07:56:08.936Z,4.63
2023-05-19T07:58:35.717Z,3.55
2023-05-19T08:01:02.435Z,4.32
2023-05-19T08:03:30.794Z,4.40
2023-05-19T08:05:57.760Z,5.43
2023-05-19T08:08:24.453Z,5.05
2023-05-19T08:10:51.340Z,5.75
2023-05-19T08:13:18.055Z,5.60
2023-05-19T08:15:44.839Z,5.57
2023-05-19T08:18:11.599Z,6.28
2023-05-19T08:20:39.684Z,6.50
2023-05-19T08:23:06.393Z,5.53
2023-05-19T08:25:33.139Z,5.22
2023-05-19T08:27:59.897Z,6.00
2023-05-19T08:30:26.622Z,6.57
2023-05-19T08:32:53.404Z,5.57
2023-05-19T08:35:20.349Z,5.32
2023-05-19T08:37:48.533Z,6.03
2023-05-19T08:40:17.651Z,6.03
2023-05-19T08:42:44.741Z,5.68
2023-05-19T08:45:11.832Z,5.57
2023-05-19T08:47:38.719Z,6.10
2023-05-19T08:50:08.437Z,6.20
2023-05-19T08:52:57.981Z,6.93
2023-05-19T08:55:34.526Z,6.60
2023-05-19T08:58:01.995Z,5.88
2023-05-19T09:00:29.718Z,6.35
2023-05-19T09:03:05.962Z,6.93
2023-05-19T09:05:38.659Z,6.03
2023-05-19T09:08:05.419Z,6.05
2023-05-19T09:10:33.757Z,6.45
2023-05-19T09:13:00.559Z,7.22
2023-05-19T09:15:27.963Z,5.25
2023-05-19T09:18:06.270Z,6.07
2023-05-19T09:20:33.326Z,5.90
2023-05-19T09:23:00.120Z,6.50
2023-05-19T09:25:26.794Z,5.45
2023-05-19T09:27:55.635Z,6.00
2023-05-19T09:30:23.145Z,5.55
2023-05-19T09:32:51.557Z,5.57
2023-05-19T09:35:18.475Z,5.32
2023-05-19T09:37:45.156Z,5.93
2023-05-19T09:40:14.666Z,4.95
2023-05-19T09:42:42.556Z,5.80
2023-05-19T09:45:10.891Z,5.97
2023-05-19T09:47:38.361Z,6.43
2023-05-19T09:50:06.691Z,5.78
2023-05-19T09:52:35.488Z,5.90
2023-05-19T09:55:02.417Z,5.93
2023-05-19T09:57:33.893Z,5.70
2023-05-19T10:00:00.975Z,6.30
2023-05-19T10:02:30.438Z,6.10
2023-05-19T10:04:57.441Z,6.35
2023-05-19T10:07:24.629Z,6.07
2023-05-19T10:09:52.182Z,6.80
2023-05-19T10:12:19.153Z,6.13
2023-05-19T10:14:45.889Z,6.88
2023-05-19T10:17:13.042Z,6.03
2023-05-19T10:19:41.528Z,5.35
2023-05-19T10:22:08.390Z,6.55
2023-05-19T10:24:35.133Z,6.43
2023-05-19T10:27:09.922Z,6.03
2023-05-19T10:29:39.983Z,6.78
2023-05-19T10:32:11.022Z,6.10
2023-05-19T10:34:57.870Z,6.53
2023-05-19T10:37:51.408Z,7.03
2023-05-19T10:40:28.814Z,6.53
2023-05-19T10:43:10.093Z,7.68
2023-05-19T10:45:42.264Z,6.63
2023-05-19T10:48:11.283Z,7.65
2023-05-19T10:50:39.480Z,8.70
2023-05-19T10:53:14.457Z,7.78
2023-05-19T10:55:50.886Z,6.45
2023-05-19T10:58:49.235Z,7.90
2023-05-19T11:01:17.397Z,6.65
2023-05-19T11:03:48.967Z,7.13
2023-05-19T11:06:21.739Z,7.47
2023-05-19T11:08:53.164Z,8.05
2023-05-19T11:11:19.946Z,8.25
2023-05-19T11:13:47.653Z,7.13
2023-05-19T11:16:14.752Z,6.70
2023-05-19T11:18:41.561Z,7.32
2023-05-19T11:21:08.348Z,8.07
2023-05-19T11:23:38.443Z,9.10
2023-05-19T11:26:06.966Z,7.85
2023-05-19T11:28:34.126Z,8.93
2023-05-19T11:31:00.948Z,7.95
2023-05-19T11:33:27.955Z,7.57
2023-05-19T11:35:56.104Z,7.63
2023-05-19T11:38:25.939Z,8.48
2023-05-19T11:40:54.949Z,7.95
2023-05-19T11:43:23.671Z,8.15
2023-05-19T11:45:50.411Z,8.68
2023-05-19T11:48:17.541Z,8.95
2023-05-19T11:50:44.456Z,10.30
2023-05-19T11:53:12.572Z,7.85
2023-05-19T11:55:42.363Z,8.50
2023-05-19T11:58:17.068Z,8.60
2023-05-19T12:00:45.292Z,8.35
2023-05-19T12:03:12.063Z,7.72
2023-05-19T12:05:43.538Z,8.65
2023-05-19T12:08:10.889Z,8.30
2023-05-19T12:10:38.886Z,8.48
2023-05-19T12:13:05.848Z,8.00
2023-05-19T12:15:34.160Z,9.13
2023-05-19T12:18:02.048Z,8.38
2023-05-19T12:20:29.623Z,8.73
2023-05-19T12:22:56.384Z,8.35
2023-05-19T12:25:23.396Z,7.70
2023-05-19T12:27:50.331Z,8.75
2023-05-19T12:30:17.245Z,9.18
2023-05-19T12:32:46.113Z,8.35
2023-05-19T12:35:12.894Z,8.40
2023-05-19T12:37:41.624Z,8.27
2023-05-19T12:40:09.618Z,9.20
2023-05-19T12:42:47.776Z,8.55
2023-05-19T12:45:27.876Z,10.00
2023-05-19T12:47:56.302Z,9.15
2023-05-19T12:50:32.191Z,9.13
2023-05-19T12:52:59.000Z,8.35
2023-05-19T12:55:27.789Z,9.15
2023-05-19T12:58:13.537Z,8.40
2023-05-19T13:00:40.912Z,9.30
2023-05-19T13:03:15.288Z,8.88
2023-05-19T13:05:43.508Z,9.82
2023-05-19T13:08:11.573Z,10.27
2023-05-19T13:10:39.734Z,9.73
2023-05-19T13:13:07.694Z,8.63
2023-05-19T13:15:40.504Z,9.70
2023-05-19T13:18:10.982Z,9.82
2023-05-19T13:20:38.423Z,8.93
2023-05-19T13:23:05.193Z,9.00
2023-05-19T13:25:33.143Z,9.45
2023-05-19T13:28:00.143Z,9.38
2023-05-19T13:30:27.162Z,8.95
2023-05-19T13:32:54.018Z,9.18
2023-05-19T13:35:22.180Z,8.25
2023-05-19T13:37:57.676Z,8.48
2023-05-19T13:40:24.570Z,10.68
2023-05-19T13:42:51.349Z,8.32
2023-05-19T13:45:18.067Z,8.98
2023-05-19T13:47:44.798Z,8.27
2023-05-19T13:50:11.559Z,8.80
2023-05-19T13:52:39.747Z,8.38
2023-05-19T13:55:07.094Z,8.80
2023-05-19T13:57:33.793Z,8.63
2023-05-19T14:00:02.549Z,8.30
2023-05-19T14:02:30.887Z,6.95
2023-05-19T14:04:57.830Z,7.40
2023-05-19T14:07:24.547Z,7.35
2023-05-19T14:09:52.619Z,7.90
2023-05-19T14:12:20.231Z,7.10
2023-05-19T14:14:50.031Z,8.52
2023-05-19T14:17:16.815Z,8.15
2023-05-19T14:19:43.547Z,8.27
2023-05-19T14:22:10.241Z,8.18
2023-05-19T14:24:36.904Z,8.82
2023-05-19T14:27:05.291Z,8.10
2023-05-19T14:29:32.002Z,8.30
2023-05-19T14:31:58.800Z,8.20
2023-05-19T14:34:25.588Z,8.32
2023-05-19T14:36:52.359Z,8.50
2023-05-19T14:39:19.070Z,8.73
2023-05-19T14:41:45.737Z,8.05
2023-05-19T14:44:13.814Z,8.38
2023-05-19T14:46:40.550Z,7.43
2023-05-19T14:49:07.594Z,8.13
2023-05-19T14:51:34.308Z,8.00
2023-05-19T14:54:01.080Z,8.07
2023-05-19T14:56:27.842Z,7.75
2023-05-19T14:58:54.621Z,8.43
2023-05-19T15:01:26.819Z,8.02
2023-05-19T15:03:53.689Z,7.30
2023-05-19T15:06:20.442Z,7.65
2023-05-19T15:08:47.161Z,7.55
2023-05-19T15:11:13.902Z,8.45
2023-05-19T15:13:40.595Z,8.07
2023-05-19T15:16:17.063Z,8.25
2023-05-19T15:18:45.999Z,8.25
2023-05-19T15:21:12.743Z,9.43
2023-05-19T15:23:39.471Z,7.80
2023-05-19T15:26:06.188Z,7.38
2023-05-19T15:28:32.879Z,8.27
2023-05-19T15:30:59.697Z,7.38
2023-05-19T15:33:26.362Z,7.63
2023-05-19T15:35:54.491Z,8.50
2023-05-19T15:38:21.182Z,8.50
2023-05-19T15:40:47.896Z,7.43
2023-05-19T15:43:14.610Z,7.80
2023-05-19T15:45:41.441Z,7.72
2023-05-19T15:48:08.377Z,7.35
2023-05-19T15:50:35.895Z,7.32
2023-05-19T15:53:04.272Z,7.40
2023-05-19T15:55:31.005Z,7.43
2023-05-19T15:57:57.687Z,6.93
2023-05-19T16:00:24.556Z,8.05
2023-05-19T16:02:51.314Z,8.23
2023-05-19T16:05:18.181Z,6.95
2023-05-19T16:07:44.885Z,9.27
2023-05-19T16:10:13.100Z,7.20
2023-05-19T16:12:39.800Z,7.93
2023-05-19T16:15:07.456Z,7.25
2023-05-19T16:17:34.216Z,7.30
2023-05-19T16:20:00.983Z,7.50
2023-05-19T16:22:27.675Z,8.30
2023-05-19T16:24:54.544Z,8.00
2023-05-19T16:27:22.657Z,7.35
2023-05-19T16:29:49.453Z,8.38
2023-05-19T16:32:16.134Z,7.85
2023-05-19T16:34:42.832Z,7.28
2023-05-19T16:37:09.513Z,9.45
2023-05-19T16:39:36.314Z,8.65
2023-05-19T16:42:03.198Z,8.80
2023-05-19T16:44:31.257Z,8.10
2023-05-19T16:46:57.970Z,8.15
2023-05-19T16:49:24.673Z,7.35
2023-05-19T16:51:51.371Z,8.23
2023-05-19T16:54:18.230Z,7.72
2023-05-19T16:56:44.994Z,7.65
2023-05-19T16:59:11.706Z,7.93
2023-05-19T17:01:39.929Z,7.93
2023-05-19T17:04:06.699Z,7.45
2023-05-19T17:06:33.406Z,7.43
2023-05-19T17:09:00.143Z,7.10
2023-05-19T17:11:26.889Z,7.35
2023-05-19T17:13:53.559Z,7.10
2023-05-19T17:16:20.295Z,7.57
2023-05-19T17:18:48.399Z,8.05
2023-05-19T17:21:15.345Z,7.43
2023-05-19T17:23:42.008Z,7.95
2023-05-19T17:26:08.862Z,6.80
2023-05-19T17:28:35.641Z,7.88
2023-05-19T17:31:09.329Z,7.63
2023-05-19T17:33:36.185Z,6.78
2023-05-19T17:36:05.164Z,7.15
2023-05-19T17:38:34.915Z,7.22
2023-05-19T17:41:02.163Z,7.53
2023-05-19T17:43:29.241Z,6.95
2023-05-19T17:45:56.171Z,6.32
2023-05-19T17:48:23.589Z,7.05
2023-05-19T17:50:50.250Z,6.90
2023-05-19T17:53:19.543Z,7.28
2023-05-19T17:55:50.667Z,6.35
2023-05-19T17:58:18.149Z,6.57
2023-05-19T18:00:45.323Z,7.28
2023-05-19T18:03:12.612Z,7.05
2023-05-19T18:05:39.878Z,7.40
2023-05-19T18:08:07.352Z,7.78
2023-05-19T18:10:37.048Z,7.20
2023-05-19T18:13:03.907Z,7.03
2023-05-19T18:15:31.029Z,7.68
2023-05-19T18:17:57.794Z,7.22
2023-05-19T18:20:24.487Z,7.82
2023-05-19T18:22:51.348Z,8.70
2023-05-19T18:25:18.065Z,8.35
2023-05-19T18:27:46.178Z,8.40
2023-05-19T18:30:12.970Z,9.02
2023-05-19T18:32:39.691Z,7.50
2023-05-19T18:35:07.263Z,8.88
2023-05-19T18:37:34.053Z,9.77
2023-05-19T18:40:00.955Z,7.88
2023-05-19T18:42:27.718Z,8.65
2023-05-19T18:44:55.775Z,9.02
2023-05-19T18:47:22.453Z,8.90
2023-05-19T18:49:49.152Z,8.38
2023-05-19T18:52:16.028Z,9.52
2023-05-19T18:54:42.702Z,9.32
2023-05-19T18:57:09.455Z,8.73
2023-05-19T18:59:36.194Z,9.05
2023-05-19T19:02:04.521Z,8.50
2023-05-19T19:04:31.217Z,8.88
2023-05-19T19:06:57.942Z,8.80
2023-05-19T19:09:24.655Z,8.50
2023-05-19T19:11:51.401Z,8.77
2023-05-19T19:14:18.109Z,9.00
2023-05-19T19:16:44.812Z,8.93
2023-05-19T19:19:12.917Z,8.80
2023-05-19T19:21:39.653Z,8.10
2023-05-19T19:24:06.846Z,8.20
2023-05-19T19:26:33.555Z,7.43
2023-05-19T19:29:00.255Z,7.68
2023-05-19T19:31:27.281Z,7.50
2023-05-19T19:33:54.057Z,8.52
2023-05-19T19:36:22.158Z,9.10
2023-05-19T19:38:48.890Z,8.38
2023-05-19T19:41:15.566Z,9.10
2023-05-19T19:43:42.270Z,8.60
2023-05-19T19:46:09.008Z,8.27
2023-05-19T19:48:35.742Z,9.32
2023-05-19T19:51:02.458Z,8.82
2023-05-19T19:53:30.524Z,9.07
2023-05-19T19:55:58.318Z,10.10
2023-05-19T19:58:25.581Z,10.07
2023-05-19T20:00:56.157Z,9.02
2023-05-19T20:03:23.071Z,9.15
2023-05-19T20:05:50.228Z,10.98
2023-05-19T20:08:20.024Z,9.70
2023-05-19T20:10:48.161Z,9.95
2023-05-19T20:13:14.935Z,10.43
2023-05-19T20:15:42.159Z,10.23
2023-05-19T20:18:09.058Z,9.73
2023-05-19T20:20:35.962Z,10.45
2023-05-19T20:23:02.728Z,10.30
2023-05-19T20:25:29.475Z,9.63
2023-05-19T20:27:57.591Z,9.13
2023-05-19T20:30:24.339Z,10.05
2023-05-19T20:32:57.001Z,8.63
2023-05-19T20:35:26.354Z,9.65
2023-05-19T20:37:53.026Z,10.70
2023-05-19T20:40:19.716Z,10.18
2023-05-19T20:42:46.397Z,9.82
2023-05-19T20:45:14.509Z,9.60
2023-05-19T20:47:41.233Z,9.50
2023-05-19T20:50:08.707Z,9.57
2023-05-19T20:52:36.144Z,10.63
2023-05-19T20:55:03.050Z,9.73
2023-05-19T20:57:29.743Z,11.57
2023-05-19T20:59:56.474Z,9.95
2023-05-19T21:02:24.501Z,10.52
2023-05-19T21:04:51.295Z,9.48
2023-05-19T21:07:18.109Z,10.25
2023-05-19T21:09:44.811Z,10.68
2023-05-19T21:12:11.475Z,10.02
2023-05-19T21:14:38.273Z,10.73
2023-05-19T21:17:05.009Z,10.57
2023-05-19T21:19:33.208Z,10.23
2023-05-19T21:21:59.980Z,9.77
2023-05-19T21:24:26.740Z,9.88
2023-05-19T21:26:53.432Z,10.55
2023-05-19T21:29:20.151Z,9.75
2023-05-19T21:31:46.886Z,9.07
2023-05-19T21:34:13.605Z,8.80
2023-05-19T21:36:41.752Z,8.63
2023-05-19T21:39:08.493Z,7.78
2023-05-19T21:41:35.228Z,6.97
2023-05-19T21:44:01.913Z,6.65
2023-05-19T21:46:28.622Z,6.40
2023-05-19T21:48:55.321Z,5.75
2023-05-19T21:51:22.123Z,6.43
2023-05-19T21:53:50.217Z,5.47
2023-05-19T21:56:16.900Z,4.75
2023-05-19T21:58:43.610Z,5.22
2023-05-19T22:01:10.411Z,4.32
2023-05-19T22:03:37.233Z,4.82
2023-05-19T22:06:04.565Z,5.10
2023-05-19T22:08:31.237Z,5.32
2023-05-19T22:10:59.261Z,4.47
2023-05-19T22:13:26.072Z,10.77
2023-05-19T22:15:52.767Z,7.97
2023-05-19T22:18:19.488Z,4.78
2023-05-19T22:20:46.372Z,4.35
2023-05-19T22:23:13.062Z,4.72
2023-05-19T22:25:39.734Z,4.38
2023-05-19T22:28:07.801Z,4.20
2023-05-19T22:30:34.846Z,4.65
2023-05-19T22:33:01.932Z,4.50
2023-05-19T22:35:28.739Z,4.30
2023-05-19T22:37:55.410Z,4.15
2023-05-19T22:40:22.120Z,4.20
2023-05-19T22:42:48.814Z,4.07
2023-05-19T22:45:17.054Z,4.80
2023-05-19T22:47:43.798Z,4.65
2023-05-19T22:50:10.727Z,5.22
2023-05-19T22:52:37.445Z,4.53
2023-05-19T22:55:04.620Z,5.00
2023-05-19T22:57:31.318Z,4.60
2023-05-19T22:59:57.981Z,4.78
2023-05-19T23:02:26.734Z,4.95
2023-05-19T23:04:53.542Z,4.70
2023-05-19T23:07:20.268Z,4.93
2023-05-19T23:09:46.952Z,4.50
2023-05-19T23:12:13.686Z,4.88
2023-05-19T23:14:40.849Z,4.68
2023-05-19T23:17:07.572Z,5.22
2023-05-19T23:19:35.680Z,5.18
2023-05-19T23:22:02.380Z,4.80
2023-05-19T23:24:29.056Z,5.05
2023-05-19T23:26:55.815Z,4.70
2023-05-19T23:29:22.569Z,4.97
2023-05-19T23:31:49.314Z,5.35
2023-05-19T23:34:16.027Z,4.85
2023-05-19T23:36:44.160Z,5.10
2023-05-19T23:39:10.835Z,4.93
2023-05-19T23:41:37.564Z,5.50
2023-05-19T23:44:04.447Z,4.90
2023-05-19T23:46:31.291Z,5.10
2023-05-19T23:48:58.071Z,5.88
2023-05-19T23:51:24.871Z,6.25
2023-05-19T23:53:52.913Z,5.28
2023-05-19T23:56:19.628Z,5.75
2023-05-19T23:58:46.295Z,5.35
